Search for airport 
image banner adimage banner adimage banner ad
image banner ad

SWJY - Fazenda Campo Alegre III Airport

Located in Alto Garças, Brazil

ICAO - SWJY, IATA -

Data provided by Airmate  

General information

Coordinates: S7°14'46" W35°10'21"
Elevation is 383 feet MSL.
Magnetic variation is -21° East
View others Airports in Paraíba

Operational data

Special qualification required
Current time UTC:
Current local time:
Weather at : SBJP - Presidente Castro Pinto ( 27 km )
METAR: SBJP 090000Z 08004KT 9999 SCT020 26/24 Q1013
TAF: TAF SBJP 082100Z 0900/0924 09010KT 9999 SCT030 TN26/0908Z TX31/0915Z BECMG 0904/0906 16005KT SCT018 BECMG 0910/0912 10010KT BKN017 RMK PGU
View NOTAMs / SUP AIP / TFR affecting this airport [VIEW]
Communications frequencies: [VIEW]

Runways:

RWY identifierQFULength (ft)Width (ft)SurfaceLDA (ft)
14328059DIRT
32328059DIRT

Airport contact information

Address: Alto Garças Brazil

Satellite view of SWJY